Time;durP1;ratioP1;P1;durP2;ratioP2;P2;SDS_P1;SDS_P2;PMS_P1;PMS_P2;Temp;Humidity;BMP_temperature;BMP_pressure;BME280_temperature;BME280_humidity;BME280_pressure;Samples;Min_cycle;Max_cycle;Signal;HPM_P1;HPM_P2
2022/12/28 00:01:13;;;;;;;3.13;2.83;;;2.30;99.90;;;;;;5015840;28;20214;-83
2022/12/28 00:03:39;;;;;;;5.35;2.25;;;;;;;;;;5017156;28;20237;-84
2022/12/28 00:06:05;;;;;;;6.93;3.53;;;2.50;99.90;;;;;;5006381;28;20193;-84
2022/12/28 00:08:31;;;;;;;6.30;3.00;;;2.50;99.90;;;;;;4999806;28;20202;-83
2022/12/28 00:11:05;;;;;;;3.37;2.40;;;2.50;99.90;;;;;;5012772;28;20178;-83
2022/12/28 00:13:31;;;;;;;4.70;3.55;;;2.80;99.90;;;;;;5000247;28;20565;-84
2022/12/28 00:15:58;;;;;;;2.25;1.85;;;3.20;99.90;;;;;;5002373;28;20170;-84
2022/12/28 00:18:24;;;;;;;3.20;1.80;;;2.80;99.90;;;;;;4993783;28;20880;-83
2022/12/28 00:20:57;;;;;;;5.50;2.80;;;2.90;99.90;;;;;;5002309;28;20187;-83
2022/12/28 00:23:23;;;;;;;6.40;3.38;;;3.10;99.90;;;;;;5001450;28;20748;-84
2022/12/28 00:25:49;;;;;;;3.47;2.17;;;;;;;;;;5006538;28;20197;-87
2022/12/28 00:28:15;;;;;;;1.20;0.93;;;;;;;;;;5005949;28;20233;-88
2022/12/28 00:30:41;;;;;;;2.60;2.40;;;;;;;;;;5020755;28;20437;-87
2022/12/28 00:33:07;;;;;;;3.00;1.50;;;;;;;;;;5008432;28;20425;-87
2022/12/28 00:35:33;;;;;;;3.20;2.17;;;;;;;;;;5002377;28;20260;-86
2022/12/28 00:37:59;;;;;;;6.27;2.70;;;;;;;;;;4998171;28;20693;-87
2022/12/28 00:40:25;;;;;;;3.30;2.10;;;;;;;;;;5007235;28;20548;-87
2022/12/28 00:42:51;;;;;;;2.45;1.73;;;;;;;;;;5004182;28;20529;-87
2022/12/28 00:45:17;;;;;;;1.67;1.57;;;;;;;;;;5002139;28;20204;-87
2022/12/28 00:47:43;;;;;;;6.38;2.70;;;;;;;;;;4996301;28;20469;-87
2022/12/28 00:50:09;;;;;;;2.00;1.80;;;;;;;;;;4998378;28;20178;-87
2022/12/28 00:52:35;;;;;;;6.72;3.15;;;;;;;;;;5007136;28;20506;-87
2022/12/28 00:55:01;;;;;;;4.90;2.10;;;;;;;;;;5005274;28;22073;-87
2022/12/28 00:57:27;;;;;;;3.20;1.93;;;;;;;;;;5009735;28;20865;-87
2022/12/28 00:59:53;;;;;;;9.50;2.57;;;;;;;;;;5009089;28;20484;-87
2022/12/28 01:02:19;;;;;;;3.50;1.70;;;;;;;;;;5011614;28;20430;-87
2022/12/28 01:04:45;;;;;;;3.37;1.83;;;;;;;;;;5023601;28;20458;-87
2022/12/28 01:07:11;;;;;;;7.90;2.90;;;;;;;;;;5011570;28;20453;-87
2022/12/28 01:09:37;;;;;;;6.97;2.22;;;;;;;;;;5011382;28;20464;-89
2022/12/28 01:12:03;;;;;;;3.77;1.60;;;;;;;;;;5011980;28;20602;-88
2022/12/28 01:14:29;;;;;;;5.65;1.67;;;;;;;;;;4998303;28;20481;-87
2022/12/28 01:16:55;;;;;;;2.57;2.20;;;;;;;;;;5011269;28;20187;-88
2022/12/28 01:19:21;;;;;;;3.63;2.53;;;3.50;99.90;;;;;;5007970;28;20464;-89
2022/12/28 01:21:49;;;;;;;7.90;2.30;;;6.20;99.90;;;;;;5019060;28;20449;-88
2022/12/28 01:24:15;;;;;;;4.43;3.10;;;3.70;99.90;;;;;;5016763;28;20218;-87
2022/12/28 01:26:41;;;;;;;3.77;2.07;;;;;;;;;;5018711;28;20221;-86
2022/12/28 01:29:07;;;;;;;5.25;2.30;;;;;;;;;;5006327;28;20483;-87
2022/12/28 01:31:34;;;;;;;7.95;2.92;;;3.80;99.90;;;;;;5014228;28;20179;-86
2022/12/28 01:34:01;;;;;;;1.85;1.52;;;3.80;99.90;;;;;;5007994;28;20187;-86
2022/12/28 01:36:30;;;;;;;9.23;2.05;;;3.90;99.90;;;;;;5020960;28;20178;-88
2022/12/28 01:38:58;;;;;;;2.92;1.92;;;3.90;99.90;;;;;;5008436;28;20209;-87
2022/12/28 01:41:25;;;;;;;2.05;1.73;;;3.90;99.90;;;;;;5007024;28;20189;-88
2022/12/28 01:43:51;;;;;;;8.80;2.67;;;;;;;;;;5019649;28;20341;-87
2022/12/28 01:46:48;;;;;;;2.97;2.00;;;3.90;99.90;;;;;;5003884;28;20259;-87
2022/12/28 01:49:14;;;;;;;3.20;2.58;;;;;;;;;;4997589;28;20426;-88
2022/12/28 01:51:57;;;;;;;1.60;1.50;;;4.00;99.90;;;;;;5012655;28;20264;-89
2022/12/28 01:54:27;;;;;;;5.47;1.70;;;4.00;99.90;;;;;;5027062;28;20490;-87
2022/12/28 01:56:53;;;;;;;1.48;1.35;;;3.80;99.90;;;;;;5004536;28;20182;-86
2022/12/28 01:59:21;;;;;;;3.10;2.20;;;4.00;99.90;;;;;;5015878;28;20193;-88
2022/12/28 02:01:47;;;;;;;3.03;2.08;;;4.10;99.90;;;;;;5034861;28;20183;-88
2022/12/28 02:04:19;;;;;;;5.07;1.95;;;4.00;99.90;;;;;;5014938;28;20187;-89
2022/12/28 02:06:46;;;;;;;2.63;2.00;;;3.90;99.90;;;;;;5036705;28;20159;-88
2022/12/28 02:09:35;;;;;;;3.65;1.90;;;4.10;99.90;;;;;;5036961;28;20194;-89
2022/12/28 02:12:01;;;;;;;1.90;1.33;;;3.80;99.90;;;;;;5036583;28;20159;-89
2022/12/28 02:14:28;;;;;;;2.80;2.30;;;;;;;;;;5020952;28;20210;-88
2022/12/28 02:16:54;;;;;;;2.78;1.45;;;4.00;99.90;;;;;;5027290;28;20182;-89
2022/12/28 02:19:30;;;;;;;2.97;1.70;;;4.00;99.90;;;;;;5030854;28;20205;-87
2022/12/28 02:22:26;;;;;;;2.55;1.83;;;4.20;99.90;;;;;;5009464;28;20540;-87
2022/12/28 02:24:52;;;;;;;2.47;1.85;;;;;;;;;;5016426;28;20198;-87
2022/12/28 02:27:27;;;;;;;1.70;1.57;;;4.10;99.90;;;;;;5013251;28;21937;-91
2022/12/28 02:30:04;;;;;;;5.97;1.83;;;4.10;99.90;;;;;;5026176;28;20425;-87
2022/12/28 02:32:58;;;;;;;4.10;2.15;;;4.20;99.90;;;;;;5025398;28;20905;-85
2022/12/28 02:35:45;;;;;;;2.13;1.58;;;4.20;99.90;;;;;;5010013;28;20186;-87
2022/12/28 02:38:25;;;;;;;1.27;1.20;;;4.30;99.90;;;;;;5008993;28;20582;-87
2022/12/28 02:40:57;;;;;;;2.72;2.00;;;4.30;99.90;;;;;;5026130;28;20194;-87
2022/12/28 02:43:23;;;;;;;1.75;1.02;;;;;;;;;;5006501;28;20385;-87
2022/12/28 02:51:42;;;;;;;1.60;1.30;;;4.20;99.90;;;;;;5011907;28;20190;-88
2022/12/28 02:57:54;;;;;;;2.47;1.90;;;4.40;99.90;;;;;;5011513;28;20229;-88
2022/12/28 03:00:23;;;;;;;1.80;1.65;;;4.40;99.90;;;;;;5014725;28;20544;-87
2022/12/28 03:03:20;;;;;;;2.35;0.95;;;4.20;99.90;;;;;;5017819;28;20174;-88
2022/12/28 03:09:05;;;;;;;2.88;1.40;;;4.20;99.90;;;;;;5020002;28;20204;-88
2022/12/28 03:15:05;;;;;;;2.50;1.38;;;4.40;99.90;;;;;;5021600;28;20186;-89
2022/12/28 03:32:02;;;;;;;7.95;1.20;;;4.60;99.90;;;;;;5021339;28;20158;-89
2022/12/28 03:34:28;;;;;;;1.40;1.00;;;;;;;;;;5019789;28;20178;-89
2022/12/28 03:37:06;;;;;;;2.17;1.17;;;4.50;99.90;;;;;;5019488;28;20471;-90
2022/12/28 03:39:40;;;;;;;1.98;0.80;;;4.50;99.90;;;;;;5019401;28;20535;-89
2022/12/28 03:44:56;;;;;;;1.30;1.00;;;4.80;99.90;;;;;;5020648;28;20202;-88
2022/12/28 03:47:25;;;;;;;1.17;0.82;;;4.50;99.90;;;;;;5018926;28;20186;-89
2022/12/28 03:49:51;;;;;;;1.83;0.95;;;4.40;99.90;;;;;;5034397;28;20595;-87
2022/12/28 03:52:17;;;;;;;1.90;0.97;;;;;;;;;;5016480;28;20277;-88
2022/12/28 03:54:42;;;;;;;4.88;1.70;;;4.50;99.90;;;;;;5010488;28;20743;-85
2022/12/28 03:57:08;;;;;;;1.80;1.47;;;;;;;;;;5003691;28;20186;-86
2022/12/28 03:59:35;;;;;;;1.43;0.80;;;4.70;99.90;;;;;;5009876;28;20584;-85
2022/12/28 04:02:00;;;;;;;3.88;1.00;;;;;;;;;;5030088;28;20437;-89
2022/12/28 04:04:26;;;;;;;0.80;0.70;;;;;;;;;;5007839;28;20240;-87
2022/12/28 04:06:53;;;;;;;0.77;0.77;;;4.70;99.90;;;;;;5016686;28;20429;-89
2022/12/28 04:09:19;;;;;;;4.53;1.83;;;;;;;;;;5023748;28;20437;-88
2022/12/28 04:11:45;;;;;;;0.80;0.80;;;;;;;;;;5012677;28;20171;-87
2022/12/28 04:14:11;;;;;;;3.63;1.50;;;;;;;;;;5010013;28;20430;-87
2022/12/28 04:16:37;;;;;;;2.43;1.17;;;;;;;;;;5012310;28;20440;-87
2022/12/28 04:19:03;;;;;;;1.43;0.93;;;;;;;;;;5006127;28;20501;-86
2022/12/28 04:21:29;;;;;;;1.13;0.70;;;;;;;;;;5008705;28;20441;-86
2022/12/28 04:23:55;;;;;;;1.00;0.50;;;;;;;;;;5003949;28;20233;-87
2022/12/28 04:26:21;;;;;;;0.80;0.73;;;;;;;;;;5012441;28;20433;-87
2022/12/28 04:28:47;;;;;;;2.25;1.35;;;;;;;;;;5024925;28;20480;-86
2022/12/28 04:31:13;;;;;;;0.90;0.60;;;4.80;99.90;;;;;;5015080;28;20189;-86
2022/12/28 04:33:39;;;;;;;1.92;0.80;;;4.80;99.90;;;;;;5026302;28;20468;-86
2022/12/28 04:36:05;;;;;;;0.60;0.60;;;;;;;;;;5021769;28;20182;-86
2022/12/28 04:38:31;;;;;;;0.68;0.68;;;4.90;99.90;;;;;;5012512;28;20256;-86
2022/12/28 04:40:57;;;;;;;1.30;1.20;;;;;;;;;;5028696;28;20182;-87
2022/12/28 04:43:23;;;;;;;1.53;0.73;;;;;;;;;;5013240;28;20785;-87
2022/12/28 04:45:59;;;;;;;1.03;0.90;;;4.90;99.90;;;;;;5022145;28;20448;-89
2022/12/28 04:48:26;;;;;;;3.17;0.88;;;4.90;99.90;;;;;;5009248;28;20503;-87
2022/12/28 04:50:52;;;;;;;2.03;0.75;;;4.90;99.90;;;;;;5028521;28;20218;-88
2022/12/28 04:53:19;;;;;;;2.55;0.95;;;4.70;99.90;;;;;;5013412;28;20194;-87
2022/12/28 04:55:44;;;;;;;1.13;0.82;;;;;;;;;;5021864;28;20686;-89
2022/12/28 04:58:11;;;;;;;1.67;0.50;;;;;;;;;;5011697;28;20199;-87
2022/12/28 05:00:37;;;;;;;9.00;1.42;;;;;;;;;;5011267;28;20534;-87
2022/12/28 05:03:02;;;;;;;2.73;0.77;;;;;;;;;;5006661;28;20592;-89
2022/12/28 05:05:28;;;;;;;1.57;1.20;;;;;;;;;;5007518;28;21062;-90
2022/12/28 05:07:55;;;;;;;5.13;0.70;;;;;;;;;;5028224;28;21005;-87
2022/12/28 05:10:20;;;;;;;1.30;1.20;;;5.10;99.90;;;;;;5012924;28;20515;-87
2022/12/28 05:12:46;;;;;;;5.93;1.33;;;;;;;;;;5026269;28;20171;-87
2022/12/28 05:15:12;;;;;;;0.80;0.60;;;;;;;;;;5009582;28;20197;-86
2022/12/28 05:17:38;;;;;;;1.43;0.83;;;;;;;;;;5028932;28;20580;-87
2022/12/28 05:20:04;;;;;;;1.90;0.77;;;5.30;99.90;;;;;;5007121;28;20421;-86
2022/12/28 05:22:30;;;;;;;0.70;0.57;;;;;;;;;;5025035;28;20437;-86
2022/12/28 05:24:57;;;;;;;0.75;0.75;;;4.50;99.90;;;;;;5009603;28;20539;-86
2022/12/28 05:27:23;;;;;;;1.80;0.77;;;;;;;;;;5008511;28;20201;-85
2022/12/28 05:29:48;;;;;;;1.37;0.80;;;5.10;99.90;;;;;;5009425;28;20285;-85
2022/12/28 05:32:14;;;;;;;0.77;0.53;;;5.30;99.90;;;;;;5007874;28;20979;-85
2022/12/28 05:34:39;;;;;;;1.43;1.13;;;;;;;;;;5026604;28;20657;-86
2022/12/28 05:37:05;;;;;;;5.57;1.07;;;;;;;;;;5019523;28;20260;-88
2022/12/28 05:39:31;;;;;;;1.60;1.03;;;;;;;;;;5006778;28;20436;-88
2022/12/28 05:41:59;;;;;;;0.70;0.70;;;;;;;;;;5011059;28;20443;-87
2022/12/28 05:44:25;;;;;;;1.23;1.02;;;5.60;99.90;;;;;;5002549;28;20542;-86
2022/12/28 05:46:52;;;;;;;3.17;1.25;;;;;;;;;;5010267;28;20163;-86
2022/12/28 05:49:17;;;;;;;2.08;0.75;;;5.60;99.90;;;;;;5007183;28;20178;-87
2022/12/28 05:51:43;;;;;;;0.77;0.77;;;;;;;;;;5011895;28;20701;-89
2022/12/28 05:54:09;;;;;;;1.20;0.83;;;;;;;;;;5009438;28;20186;-86
2022/12/28 05:56:35;;;;;;;0.60;0.50;;;;;;;;;;5014443;28;20500;-87
2022/12/28 05:59:07;;;;;;;1.53;0.80;;;5.50;99.90;;;;;;5018802;28;20477;-86
2022/12/28 06:01:38;;;;;;;0.70;0.60;;;5.40;99.90;;;;;;5005244;28;20856;-88
2022/12/28 06:04:10;;;;;;;0.40;0.40;;;5.60;99.90;;;;;;5017107;28;20206;-88
2022/12/28 06:06:36;;;;;;;1.80;0.60;;;5.90;99.90;;;;;;4996447;28;20156;-87
2022/12/28 06:09:02;;;;;;;0.60;0.60;;;;;;;;;;4995722;28;20191;-87
2022/12/28 06:11:28;;;;;;;0.50;0.50;;;;;;;;;;5007545;28;20175;-87
2022/12/28 06:13:54;;;;;;;0.60;0.50;;;6.00;99.90;;;;;;5028957;28;20182;-87
2022/12/28 06:16:28;;;;;;;1.20;0.60;;;5.70;99.90;;;;;;5013305;28;20186;-87
2022/12/28 06:18:54;;;;;;;0.82;0.43;;;6.20;99.90;;;;;;5032960;28;20206;-88
2022/12/28 06:21:26;;;;;;;0.60;0.50;;;6.00;99.90;;;;;;5009982;28;20253;-85
2022/12/28 06:23:53;;;;;;;1.35;0.90;;;6.00;99.90;;;;;;5024013;28;20492;-84
2022/12/28 06:26:20;;;;;;;1.88;1.13;;;6.10;99.90;;;;;;5004985;28;20241;-84
2022/12/28 06:28:47;;;;;;;1.88;0.90;;;6.00;99.90;;;;;;5003731;28;20316;-84
2022/12/28 06:31:19;;;;;;;4.20;0.70;;;6.20;99.90;;;;;;5021695;28;20265;-85
2022/12/28 06:33:45;;;;;;;5.07;1.80;;;6.20;99.90;;;;;;5009912;28;20185;-85
2022/12/28 06:36:16;;;;;;;0.70;0.70;;;6.20;99.90;;;;;;5028896;28;20175;-85
2022/12/28 06:38:43;;;;;;;7.90;3.50;;;6.20;99.90;;;;;;5012398;28;20206;-84
2022/12/28 06:41:10;;;;;;;1.58;0.60;;;6.20;99.90;;;;;;5010943;28;20625;-84
2022/12/28 06:43:38;;;;;;;1.75;1.05;;;6.20;99.90;;;;;;5022824;28;20193;-84
2022/12/28 06:46:04;;;;;;;1.30;0.88;;;;;;;;;;5011857;28;20306;-84
2022/12/28 06:48:31;;;;;;;6.05;2.80;;;6.10;99.90;;;;;;5013633;28;20770;-85
2022/12/28 06:51:02;;;;;;;1.35;0.95;;;6.30;99.90;;;;;;5011592;28;23046;-84
2022/12/28 06:53:31;;;;;;;2.75;1.00;;;6.10;99.90;;;;;;5005771;28;20175;-85
2022/12/28 06:55:59;;;;;;;0.40;0.40;;;6.10;99.90;;;;;;5005952;28;20281;-86
2022/12/28 06:58:26;;;;;;;3.25;0.77;;;6.20;99.90;;;;;;5005106;28;20244;-85
2022/12/28 07:00:53;;;;;;;0.52;0.40;;;;;;;;;;5002165;28;20193;-85
2022/12/28 07:03:19;;;;;;;1.50;0.90;;;;;;;;;;5019594;28;21087;-84
2022/12/28 07:05:45;;;;;;;2.13;1.17;;;;;;;;;;5001274;28;20213;-84
2022/12/28 07:08:11;;;;;;;1.17;0.70;;;;;;;;;;5005612;28;20445;-85
2022/12/28 07:10:37;;;;;;;1.03;0.70;;;;;;;;;;5010173;28;20439;-84
2022/12/28 07:13:03;;;;;;;1.07;0.63;;;6.20;99.90;;;;;;5010503;28;20442;-85
2022/12/28 07:15:29;;;;;;;5.00;0.90;;;;;;;;;;5011407;28;20938;-85
2022/12/28 07:17:55;;;;;;;0.80;0.60;;;;;;;;;;5008588;28;20210;-85
2022/12/28 07:20:21;;;;;;;0.77;0.77;;;;;;;;;;5010462;28;20657;-84
2022/12/28 07:22:47;;;;;;;1.33;0.57;;;;;;;;;;5009979;28;20806;-84
2022/12/28 07:25:13;;;;;;;0.90;0.50;;;;;;;;;;5007275;28;20588;-85
2022/12/28 07:27:39;;;;;;;2.13;0.63;;;;;;;;;;5007848;28;20553;-85
2022/12/28 07:30:05;;;;;;;1.53;1.00;;;;;;;;;;5011415;28;20437;-85
2022/12/28 07:32:31;;;;;;;1.00;0.73;;;;;;;;;;5023656;28;20436;-85
2022/12/28 07:34:57;;;;;;;4.73;1.20;;;;;;;;;;5008578;28;20273;-85
2022/12/28 07:37:23;;;;;;;3.13;0.95;;;6.40;99.90;;;;;;5007336;28;21279;-84
2022/12/28 07:39:49;;;;;;;8.23;1.60;;;;;;;;;;5011377;28;20182;-85
2022/12/28 07:42:14;;;;;;;1.37;1.27;;;6.20;99.90;;;;;;5015270;28;20261;-85
2022/12/28 07:44:40;;;;;;;0.97;0.47;;;;;;;;;;5024887;28;20482;-84
2022/12/28 07:47:07;;;;;;;0.52;0.40;;;6.20;99.90;;;;;;5025098;28;20171;-85
2022/12/28 07:49:33;;;;;;;0.60;0.60;;;;;;;;;;5008556;28;20217;-84
2022/12/28 07:51:59;;;;;;;0.80;0.80;;;;;;;;;;5007120;28;20206;-85
2022/12/28 07:54:25;;;;;;;1.00;0.83;;;;;;;;;;5004547;28;20213;-85
2022/12/28 07:56:50;;;;;;;1.33;1.23;;;;;;;;;;5013681;28;20432;-84
2022/12/28 07:59:16;;;;;;;3.47;2.13;;;;;;;;;;5010981;28;21019;-84
2022/12/28 08:01:42;;;;;;;1.73;0.90;;;;;;;;;;5009499;28;20445;-84
2022/12/28 08:04:11;;;;;;;1.10;0.70;;;6.30;99.90;;;;;;5010208;28;20460;-85
2022/12/28 08:06:40;;;;;;;2.15;0.90;;;5.50;99.90;;;;;;5004744;28;20433;-84
2022/12/28 08:09:07;;;;;;;2.35;1.10;;;6.30;99.90;;;;;;5007752;28;20202;-84
2022/12/28 08:11:35;;;;;;;1.80;0.93;;;6.20;99.90;;;;;;5025093;28;20218;-84
2022/12/28 08:14:01;;;;;;;1.40;0.85;;;6.20;99.90;;;;;;5004772;28;20197;-84
2022/12/28 08:16:30;;;;;;;1.15;0.80;;;6.10;99.90;;;;;;5025144;28;20567;-84
2022/12/28 08:18:56;;;;;;;1.05;0.93;;;;;;;;;;5026335;28;20213;-84
2022/12/28 08:21:46;;;;;;;1.00;0.80;;;6.20;99.90;;;;;;5012202;28;20665;-85
2022/12/28 08:24:15;;;;;;;1.00;0.88;;;6.20;99.90;;;;;;5010357;28;20468;-84
2022/12/28 08:26:42;;;;;;;2.30;1.00;;;;;;;;;;5009560;28;20185;-85
2022/12/28 08:29:11;;;;;;;2.78;0.70;;;6.20;99.90;;;;;;5016351;28;20206;-84
2022/12/28 08:31:39;;;;;;;4.65;1.05;;;6.30;99.90;;;;;;5025835;28;20724;-84
2022/12/28 08:34:07;;;;;;;1.17;0.80;;;6.30;99.90;;;;;;5007999;28;20239;-84
2022/12/28 08:36:34;;;;;;;2.22;0.73;;;6.30;99.90;;;;;;5007206;28;20217;-85
2022/12/28 08:39:00;;;;;;;1.13;0.90;;;;;;;;;;5027137;28;20208;-85
2022/12/28 08:41:27;;;;;;;3.55;2.10;;;6.20;99.90;;;;;;5026528;28;20194;-85
2022/12/28 08:43:53;;;;;;;1.13;1.00;;;6.30;99.90;;;;;;5010759;28;20198;-84
2022/12/28 08:46:30;;;;;;;1.90;1.27;;;6.30;99.90;;;;;;5026184;28;20265;-83
2022/12/28 08:48:57;;;;;;;7.10;4.32;;;6.40;99.90;;;;;;5011171;28;20237;-84
2022/12/28 08:51:27;;;;;;;13.98;7.93;;;6.70;99.90;;;;;;5021510;28;20197;-84
2022/12/28 08:53:52;;;;;;;17.70;7.28;;;6.50;99.90;;;;;;5026824;28;20198;-84
2022/12/28 08:56:23;;;;;;;5.23;3.67;;;6.60;99.90;;;;;;5008654;28;20252;-84
2022/12/28 08:58:49;;;;;;;18.27;4.32;;;;;;;;;;5010140;28;20462;-84
2022/12/28 09:01:17;;;;;;;21.77;9.23;;;6.50;99.90;;;;;;5017052;28;20240;-83
2022/12/28 09:03:46;;;;;;;15.60;6.13;;;6.50;99.90;;;;;;5021963;28;20955;-83
2022/12/28 09:06:15;;;;;;;0.85;0.70;;;6.50;99.90;;;;;;5005366;28;20187;-83
2022/12/28 09:08:41;;;;;;;12.68;2.50;;;;;;;;;;5005443;28;20198;-83
2022/12/28 09:11:11;;;;;;;5.75;3.40;;;6.50;99.90;;;;;;5012460;28;20320;-83
2022/12/28 09:13:38;;;;;;;3.17;1.90;;;6.70;99.90;;;;;;5010192;28;20173;-83
2022/12/28 09:16:15;;;;;;;2.92;1.95;;;7.80;99.90;;;;;;5024161;28;20551;-84
2022/12/28 09:18:42;;;;;;;12.93;8.32;;;6.80;99.90;;;;;;5021129;28;20193;-86
2022/12/28 09:21:13;;;;;;;2.40;0.85;;;6.70;99.90;;;;;;5018282;28;20285;-86
2022/12/28 09:23:39;;;;;;;4.03;2.70;;;6.80;99.90;;;;;;5005209;28;21190;-86
2022/12/28 09:26:09;;;;;;;3.40;2.60;;;6.90;99.90;;;;;;5008079;28;20190;-85
2022/12/28 09:28:35;;;;;;;2.45;1.98;;;;;;;;;;5019881;28;20237;-86
2022/12/28 09:31:05;;;;;;;3.03;2.10;;;7.00;99.90;;;;;;4997763;28;20187;-85
2022/12/28 09:36:16;;;;;;;4.53;1.88;;;6.90;99.90;;;;;;4993646;28;20269;-85
2022/12/28 09:38:42;;;;;;;4.80;3.20;;;6.80;99.90;;;;;;4996912;28;20206;-86
2022/12/28 09:41:26;;;;;;;2.20;1.10;;;6.90;99.90;;;;;;5012901;28;20186;-85
2022/12/28 09:44:16;;;;;;;3.80;1.40;;;6.90;99.90;;;;;;5010177;28;20182;-86
2022/12/28 09:46:59;;;;;;;1.67;1.58;;;7.00;99.90;;;;;;5008797;28;20187;-85
2022/12/28 09:49:51;;;;;;;3.60;1.65;;;7.10;99.90;;;;;;5022195;28;20679;-85
2022/12/28 09:52:33;;;;;;;1.30;1.20;;;7.10;99.90;;;;;;5010346;28;20179;-86
2022/12/28 09:55:19;;;;;;;3.67;1.95;;;7.10;99.90;;;;;;5019205;28;20253;-86
2022/12/28 09:57:49;;;;;;;5.85;1.42;;;7.10;99.90;;;;;;5006253;28;20229;-85
2022/12/28 10:00:27;;;;;;;9.57;4.18;;;7.10;99.90;;;;;;5019350;28;20179;-86
2022/12/28 10:03:01;;;;;;;3.45;2.30;;;7.10;99.90;;;;;;5005712;28;20174;-85
2022/12/28 10:05:28;;;;;;;1.73;1.20;;;7.20;99.90;;;;;;5021263;28;20201;-86
2022/12/28 10:07:57;;;;;;;1.60;1.25;;;7.20;99.90;;;;;;5011330;28;20197;-85
2022/12/28 10:10:24;;;;;;;6.22;1.77;;;7.00;99.90;;;;;;5007023;28;20719;-86
2022/12/28 10:12:50;;;;;;;3.60;2.40;;;;;;;;;;5007916;28;20225;-85
2022/12/28 10:15:16;;;;;;;2.67;1.15;;;7.30;99.90;;;;;;5012039;28;20256;-85
2022/12/28 10:17:42;;;;;;;2.55;1.50;;;;;;;;;;5008826;28;20222;-85
2022/12/28 10:20:19;;;;;;;2.25;0.98;;;7.70;99.90;;;;;;5009358;28;20534;-86
2022/12/28 10:22:54;;;;;;;2.40;1.20;;;7.70;99.90;;;;;;5017967;28;20193;-85
2022/12/28 10:25:23;;;;;;;2.40;1.40;;;7.80;99.90;;;;;;5007323;28;20232;-86
2022/12/28 10:27:49;;;;;;;2.42;1.13;;;;;;;;;;5022289;28;20270;-85
2022/12/28 10:30:25;;;;;;;1.25;0.93;;;7.90;99.90;;;;;;5007611;28;20680;-86
2022/12/28 10:32:58;;;;;;;4.60;1.23;;;7.90;99.90;;;;;;5006284;28;20245;-86
2022/12/28 10:35:57;;;;;;;2.15;1.35;;;7.90;99.90;;;;;;5005031;28;20687;-88
2022/12/28 10:38:23;;;;;;;9.77;2.25;;;;;;;;;;4993483;28;20217;-85
2022/12/28 10:40:58;;;;;;;1.23;1.07;;;7.90;99.90;;;;;;5008291;28;20281;-86
2022/12/28 10:43:27;;;;;;;0.80;0.80;;;7.90;99.90;;;;;;5024368;28;20536;-86
2022/12/28 10:45:53;;;;;;;1.80;1.15;;;7.90;99.90;;;;;;5021508;28;20253;-86
2022/12/28 10:48:26;;;;;;;1.98;1.13;;;7.90;99.90;;;;;;5001729;28;20234;-86
2022/12/28 10:51:06;;;;;;;4.28;1.60;;;8.00;99.90;;;;;;5005384;28;20186;-85
2022/12/28 10:53:55;;;;;;;1.50;1.40;;;8.10;99.90;;;;;;5010111;28;20189;-85
2022/12/28 10:56:21;;;;;;;0.93;0.70;;;;;;;;;;5004251;28;20186;-85
2022/12/28 10:58:49;;;;;;;1.42;0.90;;;8.40;99.90;;;;;;5009133;28;20209;-86
2022/12/28 11:01:22;;;;;;;0.80;0.60;;;8.30;99.90;;;;;;5004484;28;20298;-86
2022/12/28 11:04:18;;;;;;;2.47;0.80;;;8.60;99.90;;;;;;5017381;28;20183;-85
2022/12/28 11:06:51;;;;;;;5.35;0.95;;;8.90;99.90;;;;;;5010981;28;20883;-85
2022/12/28 11:09:22;;;;;;;0.77;0.77;;;9.00;99.90;;;;;;5021793;28;20217;-85
2022/12/28 11:11:49;;;;;;;3.00;1.10;;;9.30;99.90;;;;;;5002415;28;20182;-87
2022/12/28 11:14:15;;;;;;;4.50;0.95;;;;;;;;;;5018519;28;20213;-85
2022/12/28 11:16:41;;;;;;;4.23;1.10;;;;;;;;;;5010663;28;20190;-85
2022/12/28 11:19:07;;;;;;;0.90;0.80;;;;;;;;;;5007273;28;20579;-85
2022/12/28 11:21:34;;;;;;;1.00;0.70;;;;;;;;;;5012377;28;20190;-85
2022/12/28 11:23:59;;;;;;;0.77;0.70;;;9.70;99.90;;;;;;5014068;28;20255;-85
2022/12/28 11:26:26;;;;;;;0.60;0.60;;;9.40;99.90;;;;;;5025442;28;20183;-85
2022/12/28 11:28:53;;;;;;;1.63;1.35;;;9.30;99.90;;;;;;5007222;28;20214;-85
2022/12/28 11:31:30;;;;;;;1.15;0.75;;;9.30;99.90;;;;;;5009398;28;20194;-85
2022/12/28 11:34:03;;;;;;;3.13;1.77;;;9.30;99.90;;;;;;5027819;28;20182;-85
2022/12/28 11:36:30;;;;;;;2.25;1.00;;;9.60;99.90;;;;;;5010346;28;20179;-85
2022/12/28 11:38:57;;;;;;;9.38;5.07;;;;;;;;;;5024250;28;20644;-85
2022/12/28 11:41:22;;;;;;;8.13;4.80;;;;;;;;;;5014256;28;20178;-85
2022/12/28 11:43:51;;;;;;;12.50;6.07;;;9.30;99.90;;;;;;5009218;28;20189;-85
2022/12/28 11:46:20;;;;;;;3.95;1.50;;;9.30;99.90;;;;;;5025712;28;20417;-84
2022/12/28 11:49:00;;;;;;;2.17;1.50;;;9.50;99.90;;;;;;5013584;28;20202;-85
2022/12/28 11:51:28;;;;;;;2.00;1.15;;;9.30;99.90;;;;;;5011669;28;20170;-84
2022/12/28 11:54:00;;;;;;;3.53;2.00;;;9.20;99.90;;;;;;5024770;28;20653;-86
2022/12/28 11:56:48;;;;;;;6.55;1.70;;;9.20;99.90;;;;;;5025461;28;20209;-85
2022/12/28 11:59:35;;;;;;;2.00;1.42;;;9.20;99.90;;;;;;5005821;28;20207;-85
2022/12/28 12:02:02;;;;;;;3.85;1.10;;;9.30;99.90;;;;;;5005084;28;20540;-86
2022/12/28 12:04:28;;;;;;;1.42;1.30;;;;;;;;;;5027024;28;20213;-85
2022/12/28 12:06:55;;;;;;;1.33;0.93;;;;;;;;;;5007301;28;20630;-84
2022/12/28 12:09:24;;;;;;;0.70;0.50;;;;;;;;;;5016383;28;20590;-85
2022/12/28 12:11:50;;;;;;;3.13;1.30;;;;;;;;;;5008702;28;20242;-85
2022/12/28 12:14:22;;;;;;;1.60;1.23;;;9.80;99.90;;;;;;5013245;28;20689;-85
2022/12/28 12:16:55;;;;;;;11.98;7.78;;;9.90;99.90;;;;;;5018731;28;20439;-84
2022/12/28 12:19:27;;;;;;;2.35;1.05;;;10.10;99.90;;;;;;5006628;28;20178;-85
2022/12/28 12:22:14;;;;;;;4.40;1.80;;;10.00;99.90;;;;;;5025021;28;20191;-85
2022/12/28 12:25:13;;;;;;;4.13;1.80;;;10.00;99.90;;;;;;5004108;28;20206;-84
2022/12/28 12:27:43;;;;;;;2.95;1.88;;;10.20;99.90;;;;;;5001258;28;20226;-80
2022/12/28 12:30:21;;;;;;;1.63;1.45;;;10.40;99.90;;;;;;5004987;28;20197;-81
2022/12/28 12:33:02;;;;;;;3.63;1.25;;;10.30;99.90;;;;;;5007166;28;20769;-81
2022/12/28 12:35:33;;;;;;;3.10;1.75;;;10.30;99.90;;;;;;5008808;28;20198;-80
2022/12/28 12:37:59;;;;;;;5.32;1.75;;;;;;;;;;5023525;28;20202;-79
2022/12/28 12:40:46;;;;;;;3.43;2.70;;;10.20;99.90;;;;;;5002516;28;20198;-81
2022/12/28 12:43:37;;;;;;;2.85;1.60;;;10.10;99.90;;;;;;5007000;28;20437;-82
2022/12/28 12:46:05;;;;;;;2.20;1.00;;;10.10;99.90;;;;;;5000603;28;20681;-81
2022/12/28 12:49:17;;;;;;;4.43;1.60;;;10.10;99.90;;;;;;5007661;28;20213;-80
2022/12/28 12:52:14;;;;;;;3.25;1.50;;;10.10;99.90;;;;;;5019982;28;20759;-80
2022/12/28 12:55:09;;;;;;;2.35;1.35;;;10.20;99.90;;;;;;5006426;28;20186;-82
2022/12/28 12:57:35;;;;;;;4.57;2.38;;;;;;;;;;5006556;28;20321;-80
2022/12/28 13:00:13;;;;;;;2.07;1.23;;;10.40;99.90;;;;;;5006230;28;20289;-80
2022/12/28 13:02:55;;;;;;;4.60;1.50;;;10.40;99.90;;;;;;5023159;28;20440;-81
2022/12/28 13:05:23;;;;;;;6.70;1.27;;;10.30;99.90;;;;;;5006645;28;20214;-79
2022/12/28 13:07:51;;;;;;;4.25;1.80;;;10.30;99.90;;;;;;5020071;28;20214;-81
2022/12/28 13:10:39;;;;;;;2.97;1.58;;;10.20;99.90;;;;;;5003493;28;20190;-81
2022/12/28 13:13:06;;;;;;;2.17;0.98;;;;;;;;;;5004308;28;20759;-81
2022/12/28 13:15:31;;;;;;;1.83;1.65;;;10.30;99.90;;;;;;5009227;28;20297;-81
2022/12/28 13:18:12;;;;;;;5.87;1.30;;;10.10;99.90;;;;;;5008130;28;20281;-81
2022/12/28 13:20:38;;;;;;;3.42;1.48;;;;;;;;;;5022057;28;20261;-80
2022/12/28 13:23:04;;;;;;;2.30;1.10;;;;;;;;;;5007239;28;20186;-81
2022/12/28 13:25:32;;;;;;;3.97;1.60;;;10.30;99.90;;;;;;5015805;28;20457;-80
2022/12/28 13:28:00;;;;;;;2.20;1.00;;;10.30;99.90;;;;;;5005890;28;20503;-81
2022/12/28 13:30:27;;;;;;;5.18;1.35;;;10.20;99.90;;;;;;5007282;28;20183;-81
2022/12/28 13:32:55;;;;;;;4.30;3.03;;;10.20;99.90;;;;;;5006994;28;20182;-81
2022/12/28 13:35:24;;;;;;;2.05;1.48;;;10.30;99.90;;;;;;5018733;28;20647;-82
2022/12/28 13:38:11;;;;;;;2.58;1.95;;;10.10;99.90;;;;;;5014864;28;20206;-83
2022/12/28 13:40:39;;;;;;;2.35;2.00;;;10.00;99.90;;;;;;5003931;28;20178;-81
2022/12/28 13:43:50;;;;;;;2.15;1.70;;;10.60;99.90;;;;;;5007227;28;20192;-80
2022/12/28 13:46:17;;;;;;;2.08;1.60;;;10.00;99.90;;;;;;5005674;28;20201;-81
2022/12/28 13:48:46;;;;;;;1.27;1.17;;;10.00;99.90;;;;;;5007888;28;20714;-81
2022/12/28 13:51:15;;;;;;;4.97;2.10;;;10.00;99.90;;;;;;5005264;28;20198;-81
2022/12/28 13:53:48;;;;;;;3.05;1.50;;;10.00;99.90;;;;;;5022105;28;20175;-81
2022/12/28 13:56:16;;;;;;;2.95;1.30;;;9.80;99.90;;;;;;5006489;28;20665;-81
2022/12/28 13:58:50;;;;;;;2.08;1.20;;;9.70;99.90;;;;;;5001764;28;20599;-81
2022/12/28 14:01:21;;;;;;;1.60;1.02;;;9.80;99.90;;;;;;5020892;28;20198;-81
2022/12/28 14:03:48;;;;;;;1.38;0.85;;;;;;;;;;5004984;28;20242;-83
2022/12/28 14:06:15;;;;;;;1.23;1.00;;;9.50;99.90;;;;;;5000938;28;20630;-83
2022/12/28 14:08:43;;;;;;;3.20;1.15;;;9.50;99.90;;;;;;5021582;28;21226;-83
2022/12/28 14:11:09;;;;;;;1.08;0.90;;;9.30;99.90;;;;;;5021694;28;20201;-80
2022/12/28 14:13:36;;;;;;;2.40;1.30;;;9.30;99.90;;;;;;5008131;28;20197;-83
2022/12/28 14:16:03;;;;;;;3.67;1.27;;;9.20;99.90;;;;;;5006115;28;20196;-80
2022/12/28 14:18:29;;;;;;;1.80;1.08;;;;;;;;;;5017764;28;20253;-78
2022/12/28 14:20:57;;;;;;;4.00;1.30;;;9.10;99.90;;;;;;5006477;28;20186;-82